sensor_id;sensor_type;location;lat;lon;timestamp;P1;durP1;ratioP1;P2;durP2;ratioP2
79728;SDS011;69218;52.132;5.418;2023-08-12T00:00:09;4.13;;;1.50;;
79728;SDS011;69218;52.132;5.418;2023-08-12T00:02:40;3.72;;;2.08;;
79728;SDS011;69218;52.132;5.418;2023-08-12T00:05:07;5.78;;;1.75;;
79728;SDS011;69218;52.132;5.418;2023-08-12T00:07:34;3.00;;;2.00;;
79728;SDS011;69218;52.132;5.418;2023-08-12T00:10:01;4.80;;;2.03;;
79728;SDS011;69218;52.132;5.418;2023-08-12T00:12:33;4.88;;;2.55;;
79728;SDS011;69218;52.132;5.418;2023-08-12T00:15:01;6.60;;;2.65;;
79728;SDS011;69218;52.132;5.418;2023-08-12T00:17:29;6.38;;;2.47;;
79728;SDS011;69218;52.132;5.418;2023-08-12T00:19:55;5.88;;;2.60;;
79728;SDS011;69218;52.132;5.418;2023-08-12T00:22:22;6.60;;;2.97;;
79728;SDS011;69218;52.132;5.418;2023-08-12T00:24:49;6.68;;;2.83;;
79728;SDS011;69218;52.132;5.418;2023-08-12T00:27:15;5.13;;;2.85;;
79728;SDS011;69218;52.132;5.418;2023-08-12T00:29:42;5.90;;;2.53;;
79728;SDS011;69218;52.132;5.418;2023-08-12T00:32:09;7.93;;;2.97;;
79728;SDS011;69218;52.132;5.418;2023-08-12T00:34:36;9.52;;;3.03;;
79728;SDS011;69218;52.132;5.418;2023-08-12T00:37:02;5.53;;;2.72;;
79728;SDS011;69218;52.132;5.418;2023-08-12T00:39:29;8.13;;;2.90;;
79728;SDS011;69218;52.132;5.418;2023-08-12T00:41:55;5.63;;;2.95;;
79728;SDS011;69218;52.132;5.418;2023-08-12T00:44:22;6.15;;;2.55;;
79728;SDS011;69218;52.132;5.418;2023-08-12T00:46:49;5.05;;;2.55;;
79728;SDS011;69218;52.132;5.418;2023-08-12T00:49:16;7.75;;;2.97;;
79728;SDS011;69218;52.132;5.418;2023-08-12T00:51:44;5.30;;;2.65;;
79728;SDS011;69218;52.132;5.418;2023-08-12T00:54:13;6.85;;;2.70;;
79728;SDS011;69218;52.132;5.418;2023-08-12T00:56:40;6.68;;;3.38;;
79728;SDS011;69218;52.132;5.418;2023-08-12T00:59:08;6.10;;;3.13;;
79728;SDS011;69218;52.132;5.418;2023-08-12T01:01:38;7.88;;;3.20;;
79728;SDS011;69218;52.132;5.418;2023-08-12T01:04:09;7.70;;;3.30;;
79728;SDS011;69218;52.132;5.418;2023-08-12T01:06:37;5.85;;;3.08;;
79728;SDS011;69218;52.132;5.418;2023-08-12T01:09:03;5.95;;;2.72;;
79728;SDS011;69218;52.132;5.418;2023-08-12T01:14:10;6.85;;;2.88;;
79728;SDS011;69218;52.132;5.418;2023-08-12T01:16:43;8.73;;;2.67;;
79728;SDS011;69218;52.132;5.418;2023-08-12T01:19:34;6.20;;;3.13;;
79728;SDS011;69218;52.132;5.418;2023-08-12T01:22:04;5.32;;;2.75;;
79728;SDS011;69218;52.132;5.418;2023-08-12T01:24:40;9.85;;;3.70;;
79728;SDS011;69218;52.132;5.418;2023-08-12T01:27:11;7.60;;;4.07;;
79728;SDS011;69218;52.132;5.418;2023-08-12T01:29:43;9.05;;;4.20;;
79728;SDS011;69218;52.132;5.418;2023-08-12T01:32:17;7.15;;;3.50;;
79728;SDS011;69218;52.132;5.418;2023-08-12T01:35:32;8.13;;;3.45;;
79728;SDS011;69218;52.132;5.418;2023-08-12T01:38:02;6.97;;;3.53;;
79728;SDS011;69218;52.132;5.418;2023-08-12T01:40:32;7.15;;;4.03;;
79728;SDS011;69218;52.132;5.418;2023-08-12T01:42:59;8.35;;;2.90;;
79728;SDS011;69218;52.132;5.418;2023-08-12T01:45:27;10.27;;;3.72;;
79728;SDS011;69218;52.132;5.418;2023-08-12T01:47:57;8.32;;;3.63;;
79728;SDS011;69218;52.132;5.418;2023-08-12T01:50:23;8.27;;;3.28;;
79728;SDS011;69218;52.132;5.418;2023-08-12T01:52:51;8.63;;;4.15;;
79728;SDS011;69218;52.132;5.418;2023-08-12T01:55:18;8.63;;;3.72;;
79728;SDS011;69218;52.132;5.418;2023-08-12T01:57:44;9.43;;;4.30;;
79728;SDS011;69218;52.132;5.418;2023-08-12T02:00:11;9.55;;;4.50;;
79728;SDS011;69218;52.132;5.418;2023-08-12T02:02:38;8.82;;;4.53;;
79728;SDS011;69218;52.132;5.418;2023-08-12T02:05:04;10.00;;;4.40;;
79728;SDS011;69218;52.132;5.418;2023-08-12T02:07:31;11.98;;;5.72;;
79728;SDS011;69218;52.132;5.418;2023-08-12T02:09:57;9.00;;;3.85;;
79728;SDS011;69218;52.132;5.418;2023-08-12T02:12:24;9.25;;;4.15;;
79728;SDS011;69218;52.132;5.418;2023-08-12T02:14:50;8.48;;;4.03;;
79728;SDS011;69218;52.132;5.418;2023-08-12T02:17:17;9.50;;;4.80;;
79728;SDS011;69218;52.132;5.418;2023-08-12T02:19:43;8.07;;;4.20;;
79728;SDS011;69218;52.132;5.418;2023-08-12T02:22:10;10.98;;;5.20;;
79728;SDS011;69218;52.132;5.418;2023-08-12T02:24:36;9.98;;;4.72;;
79728;SDS011;69218;52.132;5.418;2023-08-12T02:27:03;9.38;;;4.55;;
79728;SDS011;69218;52.132;5.418;2023-08-12T02:29:30;8.77;;;4.55;;
79728;SDS011;69218;52.132;5.418;2023-08-12T02:31:56;9.90;;;4.05;;
79728;SDS011;69218;52.132;5.418;2023-08-12T02:34:23;12.05;;;5.00;;
79728;SDS011;69218;52.132;5.418;2023-08-12T02:36:49;9.13;;;4.88;;
79728;SDS011;69218;52.132;5.418;2023-08-12T02:39:16;11.18;;;4.25;;
79728;SDS011;69218;52.132;5.418;2023-08-12T02:41:42;10.85;;;4.57;;
79728;SDS011;69218;52.132;5.418;2023-08-12T02:44:09;9.93;;;5.07;;
79728;SDS011;69218;52.132;5.418;2023-08-12T02:46:35;10.65;;;5.05;;
79728;SDS011;69218;52.132;5.418;2023-08-12T02:49:02;9.07;;;4.80;;
79728;SDS011;69218;52.132;5.418;2023-08-12T02:51:28;13.43;;;5.38;;
79728;SDS011;69218;52.132;5.418;2023-08-12T02:53:55;9.10;;;4.95;;
79728;SDS011;69218;52.132;5.418;2023-08-12T02:56:21;11.55;;;5.60;;
79728;SDS011;69218;52.132;5.418;2023-08-12T02:58:48;11.50;;;5.95;;
79728;SDS011;69218;52.132;5.418;2023-08-12T03:01:15;10.95;;;5.65;;
79728;SDS011;69218;52.132;5.418;2023-08-12T03:03:42;9.90;;;5.13;;
79728;SDS011;69218;52.132;5.418;2023-08-12T03:06:08;12.10;;;5.43;;
79728;SDS011;69218;52.132;5.418;2023-08-12T03:08:35;11.75;;;5.38;;
79728;SDS011;69218;52.132;5.418;2023-08-12T03:11:02;12.43;;;5.95;;
79728;SDS011;69218;52.132;5.418;2023-08-12T03:13:29;11.73;;;5.68;;
79728;SDS011;69218;52.132;5.418;2023-08-12T03:15:56;13.35;;;6.03;;
79728;SDS011;69218;52.132;5.418;2023-08-12T03:18:22;12.52;;;6.35;;
79728;SDS011;69218;52.132;5.418;2023-08-12T03:20:49;11.18;;;5.82;;
79728;SDS011;69218;52.132;5.418;2023-08-12T03:23:17;14.32;;;6.25;;
79728;SDS011;69218;52.132;5.418;2023-08-12T03:25:43;15.23;;;7.00;;
79728;SDS011;69218;52.132;5.418;2023-08-12T03:33:05;11.35;;;6.53;;
79728;SDS011;69218;52.132;5.418;2023-08-12T03:35:31;14.40;;;6.90;;
79728;SDS011;69218;52.132;5.418;2023-08-12T03:37:58;13.68;;;6.75;;
79728;SDS011;69218;52.132;5.418;2023-08-12T03:40:24;13.65;;;6.85;;
79728;SDS011;69218;52.132;5.418;2023-08-12T03:42:51;13.73;;;6.53;;
79728;SDS011;69218;52.132;5.418;2023-08-12T03:45:18;12.38;;;6.18;;
79728;SDS011;69218;52.132;5.418;2023-08-12T03:47:44;13.15;;;6.93;;
79728;SDS011;69218;52.132;5.418;2023-08-12T03:50:11;13.52;;;7.68;;
79728;SDS011;69218;52.132;5.418;2023-08-12T03:52:37;15.05;;;7.30;;
79728;SDS011;69218;52.132;5.418;2023-08-12T03:55:04;13.30;;;6.95;;
79728;SDS011;69218;52.132;5.418;2023-08-12T03:57:31;13.68;;;6.88;;
79728;SDS011;69218;52.132;5.418;2023-08-12T03:59:57;12.25;;;6.18;;
79728;SDS011;69218;52.132;5.418;2023-08-12T04:02:24;14.65;;;7.47;;
79728;SDS011;69218;52.132;5.418;2023-08-12T04:04:50;13.50;;;7.20;;
79728;SDS011;69218;52.132;5.418;2023-08-12T04:07:17;12.73;;;6.75;;
79728;SDS011;69218;52.132;5.418;2023-08-12T04:09:43;14.18;;;6.63;;
79728;SDS011;69218;52.132;5.418;2023-08-12T04:12:10;12.20;;;7.10;;
79728;SDS011;69218;52.132;5.418;2023-08-12T04:14:37;13.30;;;7.38;;
79728;SDS011;69218;52.132;5.418;2023-08-12T04:17:03;13.57;;;6.78;;
79728;SDS011;69218;52.132;5.418;2023-08-12T04:19:30;13.70;;;7.03;;
79728;SDS011;69218;52.132;5.418;2023-08-12T04:21:56;13.13;;;7.00;;
79728;SDS011;69218;52.132;5.418;2023-08-12T04:24:23;13.82;;;7.43;;
79728;SDS011;69218;52.132;5.418;2023-08-12T04:26:49;15.07;;;7.90;;
79728;SDS011;69218;52.132;5.418;2023-08-12T04:29:16;13.20;;;7.68;;
79728;SDS011;69218;52.132;5.418;2023-08-12T04:31:42;18.15;;;8.20;;
79728;SDS011;69218;52.132;5.418;2023-08-12T04:34:09;15.05;;;8.30;;
79728;SDS011;69218;52.132;5.418;2023-08-12T04:36:36;14.30;;;8.10;;
79728;SDS011;69218;52.132;5.418;2023-08-12T04:39:02;17.13;;;8.45;;
79728;SDS011;69218;52.132;5.418;2023-08-12T04:41:29;17.08;;;8.25;;
79728;SDS011;69218;52.132;5.418;2023-08-12T04:43:56;15.07;;;7.97;;
79728;SDS011;69218;52.132;5.418;2023-08-12T04:46:24;18.08;;;8.60;;
79728;SDS011;69218;52.132;5.418;2023-08-12T04:48:50;18.40;;;9.48;;
79728;SDS011;69218;52.132;5.418;2023-08-12T04:51:17;16.63;;;8.93;;
79728;SDS011;69218;52.132;5.418;2023-08-12T04:53:43;15.00;;;8.52;;
79728;SDS011;69218;52.132;5.418;2023-08-12T04:56:10;16.92;;;8.75;;
79728;SDS011;69218;52.132;5.418;2023-08-12T04:58:36;15.30;;;8.57;;
79728;SDS011;69218;52.132;5.418;2023-08-12T05:01:03;15.45;;;8.50;;
79728;SDS011;69218;52.132;5.418;2023-08-12T05:03:30;13.63;;;8.52;;
79728;SDS011;69218;52.132;5.418;2023-08-12T05:05:56;14.30;;;8.15;;
79728;SDS011;69218;52.132;5.418;2023-08-12T05:08:23;16.02;;;8.27;;
79728;SDS011;69218;52.132;5.418;2023-08-12T05:10:49;15.05;;;7.68;;
79728;SDS011;69218;52.132;5.418;2023-08-12T05:13:16;15.00;;;8.48;;
79728;SDS011;69218;52.132;5.418;2023-08-12T05:15:46;16.25;;;8.00;;
79728;SDS011;69218;52.132;5.418;2023-08-12T05:18:14;13.23;;;7.68;;
79728;SDS011;69218;52.132;5.418;2023-08-12T05:20:41;14.20;;;7.85;;
79728;SDS011;69218;52.132;5.418;2023-08-12T05:23:12;12.88;;;8.32;;
79728;SDS011;69218;52.132;5.418;2023-08-12T05:25:39;14.80;;;8.02;;
79728;SDS011;69218;52.132;5.418;2023-08-12T05:28:06;12.32;;;7.40;;
79728;SDS011;69218;52.132;5.418;2023-08-12T05:30:34;15.38;;;8.30;;
79728;SDS011;69218;52.132;5.418;2023-08-12T05:33:01;15.27;;;7.50;;
79728;SDS011;69218;52.132;5.418;2023-08-12T05:35:32;13.77;;;7.97;;
79728;SDS011;69218;52.132;5.418;2023-08-12T05:37:59;12.20;;;6.97;;
79728;SDS011;69218;52.132;5.418;2023-08-12T05:40:26;13.48;;;7.15;;
79728;SDS011;69218;52.132;5.418;2023-08-12T05:42:53;12.60;;;7.50;;
79728;SDS011;69218;52.132;5.418;2023-08-12T05:45:20;12.25;;;7.45;;
79728;SDS011;69218;52.132;5.418;2023-08-12T05:47:47;14.15;;;7.95;;
79728;SDS011;69218;52.132;5.418;2023-08-12T05:50:13;14.18;;;7.80;;
79728;SDS011;69218;52.132;5.418;2023-08-12T05:52:40;12.95;;;7.22;;
79728;SDS011;69218;52.132;5.418;2023-08-12T05:55:06;15.50;;;7.65;;
79728;SDS011;69218;52.132;5.418;2023-08-12T05:57:33;13.20;;;6.60;;
79728;SDS011;69218;52.132;5.418;2023-08-12T06:00:00;11.15;;;7.88;;
79728;SDS011;69218;52.132;5.418;2023-08-12T06:02:26;16.63;;;7.70;;
79728;SDS011;69218;52.132;5.418;2023-08-12T10:58:26;3.50;;;1.00;;
79728;SDS011;69218;52.132;5.418;2023-08-12T11:00:56;2.45;;;0.80;;
79728;SDS011;69218;52.132;5.418;2023-08-12T11:03:23;2.70;;;1.02;;
79728;SDS011;69218;52.132;5.418;2023-08-12T11:05:50;4.90;;;1.05;;
79728;SDS011;69218;52.132;5.418;2023-08-12T11:08:24;4.78;;;1.00;;
79728;SDS011;69218;52.132;5.418;2023-08-12T11:10:54;4.30;;;1.38;;
79728;SDS011;69218;52.132;5.418;2023-08-12T11:13:23;3.28;;;0.90;;
79728;SDS011;69218;52.132;5.418;2023-08-12T11:16:09;4.15;;;1.02;;
79728;SDS011;69218;52.132;5.418;2023-08-12T11:18:36;5.50;;;1.00;;
79728;SDS011;69218;52.132;5.418;2023-08-12T11:21:03;4.00;;;1.00;;
79728;SDS011;69218;52.132;5.418;2023-08-12T11:23:29;4.65;;;0.90;;
79728;SDS011;69218;52.132;5.418;2023-08-12T11:25:56;3.95;;;1.02;;
79728;SDS011;69218;52.132;5.418;2023-08-12T11:28:24;5.50;;;1.10;;
79728;SDS011;69218;52.132;5.418;2023-08-12T11:30:51;5.05;;;1.50;;
79728;SDS011;69218;52.132;5.418;2023-08-12T11:33:18;4.57;;;0.75;;
79728;SDS011;69218;52.132;5.418;2023-08-12T11:35:44;4.72;;;0.70;;
79728;SDS011;69218;52.132;5.418;2023-08-12T11:38:11;4.05;;;0.75;;
79728;SDS011;69218;52.132;5.418;2023-08-12T11:40:38;4.10;;;0.82;;
79728;SDS011;69218;52.132;5.418;2023-08-12T11:43:06;2.78;;;0.80;;
79728;SDS011;69218;52.132;5.418;2023-08-12T11:45:32;4.63;;;0.75;;
79728;SDS011;69218;52.132;5.418;2023-08-12T11:47:59;3.60;;;0.80;;
79728;SDS011;69218;52.132;5.418;2023-08-12T11:50:26;3.33;;;0.70;;
79728;SDS011;69218;52.132;5.418;2023-08-12T11:52:54;4.32;;;0.95;;
79728;SDS011;69218;52.132;5.418;2023-08-12T11:57:49;3.40;;;0.80;;
79728;SDS011;69218;52.132;5.418;2023-08-12T12:00:16;4.55;;;1.10;;
79728;SDS011;69218;52.132;5.418;2023-08-12T12:02:47;5.30;;;1.13;;
79728;SDS011;69218;52.132;5.418;2023-08-12T12:05:17;4.25;;;1.10;;
79728;SDS011;69218;52.132;5.418;2023-08-12T12:08:02;4.20;;;1.10;;
79728;SDS011;69218;52.132;5.418;2023-08-12T12:10:32;6.82;;;1.02;;
79728;SDS011;69218;52.132;5.418;2023-08-12T12:13:01;5.95;;;1.10;;
79728;SDS011;69218;52.132;5.418;2023-08-12T12:15:30;6.82;;;1.80;;
79728;SDS011;69218;52.132;5.418;2023-08-12T12:17:58;6.38;;;1.05;;
79728;SDS011;69218;52.132;5.418;2023-08-12T12:20:25;3.75;;;0.90;;
79728;SDS011;69218;52.132;5.418;2023-08-12T12:25:21;3.42;;;0.75;;
79728;SDS011;69218;52.132;5.418;2023-08-12T12:27:47;3.13;;;0.85;;
79728;SDS011;69218;52.132;5.418;2023-08-12T12:30:15;4.80;;;0.80;;
79728;SDS011;69218;52.132;5.418;2023-08-12T12:32:42;4.28;;;0.95;;
79728;SDS011;69218;52.132;5.418;2023-08-12T12:35:09;3.80;;;0.80;;
79728;SDS011;69218;52.132;5.418;2023-08-12T12:37:36;4.20;;;0.70;;
79728;SDS011;69218;52.132;5.418;2023-08-12T12:40:03;3.40;;;0.63;;
79728;SDS011;69218;52.132;5.418;2023-08-12T12:42:31;3.50;;;0.80;;
79728;SDS011;69218;52.132;5.418;2023-08-12T12:44:58;3.05;;;0.80;;
79728;SDS011;69218;52.132;5.418;2023-08-12T12:47:24;4.53;;;0.60;;
79728;SDS011;69218;52.132;5.418;2023-08-12T12:49:51;3.63;;;0.98;;
79728;SDS011;69218;52.132;5.418;2023-08-12T12:52:18;3.63;;;0.80;;
79728;SDS011;69218;52.132;5.418;2023-08-12T12:54:44;2.88;;;0.57;;
79728;SDS011;69218;52.132;5.418;2023-08-12T12:57:11;4.38;;;0.65;;
79728;SDS011;69218;52.132;5.418;2023-08-12T12:59:38;4.78;;;1.00;;
79728;SDS011;69218;52.132;5.418;2023-08-12T13:02:04;6.20;;;1.30;;
79728;SDS011;69218;52.132;5.418;2023-08-12T13:04:31;5.53;;;1.10;;
79728;SDS011;69218;52.132;5.418;2023-08-12T13:07:00;5.10;;;1.02;;
79728;SDS011;69218;52.132;5.418;2023-08-12T13:09:26;5.90;;;1.15;;
79728;SDS011;69218;52.132;5.418;2023-08-12T13:11:53;3.90;;;0.70;;
79728;SDS011;69218;52.132;5.418;2023-08-12T13:14:22;4.45;;;0.93;;
79728;SDS011;69218;52.132;5.418;2023-08-12T13:16:49;3.17;;;0.95;;
79728;SDS011;69218;52.132;5.418;2023-08-12T13:19:16;5.60;;;0.77;;
79728;SDS011;69218;52.132;5.418;2023-08-12T13:21:42;5.97;;;1.20;;
79728;SDS011;69218;52.132;5.418;2023-08-12T13:24:09;5.57;;;1.00;;
79728;SDS011;69218;52.132;5.418;2023-08-12T13:26:36;4.18;;;0.93;;
79728;SDS011;69218;52.132;5.418;2023-08-12T13:29:02;4.85;;;0.82;;
79728;SDS011;69218;52.132;5.418;2023-08-12T13:31:29;4.22;;;1.48;;
79728;SDS011;69218;52.132;5.418;2023-08-12T13:33:57;5.05;;;0.90;;
79728;SDS011;69218;52.132;5.418;2023-08-12T13:36:23;3.38;;;0.75;;
79728;SDS011;69218;52.132;5.418;2023-08-12T13:38:50;4.55;;;0.90;;
79728;SDS011;69218;52.132;5.418;2023-08-12T13:41:16;4.50;;;1.00;;
79728;SDS011;69218;52.132;5.418;2023-08-12T13:43:43;4.03;;;1.10;;
79728;SDS011;69218;52.132;5.418;2023-08-12T13:46:09;5.93;;;1.13;;
79728;SDS011;69218;52.132;5.418;2023-08-12T13:48:36;4.75;;;0.95;;
79728;SDS011;69218;52.132;5.418;2023-08-12T13:51:03;4.20;;;1.10;;
79728;SDS011;69218;52.132;5.418;2023-08-12T13:53:30;2.72;;;0.63;;
79728;SDS011;69218;52.132;5.418;2023-08-12T13:55:56;3.97;;;0.77;;
79728;SDS011;69218;52.132;5.418;2023-08-12T13:58:23;10.82;;;1.10;;
79728;SDS011;69218;52.132;5.418;2023-08-12T14:00:49;4.03;;;0.90;;
79728;SDS011;69218;52.132;5.418;2023-08-12T14:03:17;5.43;;;0.73;;
79728;SDS011;69218;52.132;5.418;2023-08-12T14:05:45;3.33;;;0.85;;
79728;SDS011;69218;52.132;5.418;2023-08-12T14:08:11;5.25;;;0.90;;
79728;SDS011;69218;52.132;5.418;2023-08-12T14:10:38;4.97;;;1.00;;
79728;SDS011;69218;52.132;5.418;2023-08-12T14:13:04;7.03;;;1.38;;
79728;SDS011;69218;52.132;5.418;2023-08-12T14:15:33;5.63;;;0.82;;
79728;SDS011;69218;52.132;5.418;2023-08-12T14:17:59;5.55;;;1.55;;
79728;SDS011;69218;52.132;5.418;2023-08-12T14:20:26;5.53;;;1.05;;
79728;SDS011;69218;52.132;5.418;2023-08-12T14:22:53;3.75;;;1.02;;
79728;SDS011;69218;52.132;5.418;2023-08-12T14:25:19;4.50;;;0.82;;
79728;SDS011;69218;52.132;5.418;2023-08-12T14:27:46;5.05;;;0.70;;
79728;SDS011;69218;52.132;5.418;2023-08-12T14:30:13;7.43;;;1.20;;
79728;SDS011;69218;52.132;5.418;2023-08-12T14:32:39;5.88;;;1.23;;
79728;SDS011;69218;52.132;5.418;2023-08-12T14:35:06;3.47;;;0.82;;
79728;SDS011;69218;52.132;5.418;2023-08-12T14:37:33;4.88;;;0.90;;
79728;SDS011;69218;52.132;5.418;2023-08-12T14:39:59;7.65;;;1.30;;
79728;SDS011;69218;52.132;5.418;2023-08-12T14:42:26;5.65;;;1.15;;
79728;SDS011;69218;52.132;5.418;2023-08-12T14:44:53;7.05;;;1.23;;
79728;SDS011;69218;52.132;5.418;2023-08-12T14:47:19;5.32;;;1.08;;
79728;SDS011;69218;52.132;5.418;2023-08-12T14:49:46;6.47;;;1.30;;
79728;SDS011;69218;52.132;5.418;2023-08-12T14:52:17;5.50;;;0.90;;
79728;SDS011;69218;52.132;5.418;2023-08-12T14:54:45;5.18;;;1.13;;
79728;SDS011;69218;52.132;5.418;2023-08-12T14:57:13;5.40;;;1.30;;
79728;SDS011;69218;52.132;5.418;2023-08-12T14:59:39;5.10;;;1.33;;
79728;SDS011;69218;52.132;5.418;2023-08-12T15:02:06;5.60;;;1.15;;
79728;SDS011;69218;52.132;5.418;2023-08-12T15:04:33;5.00;;;1.30;;
79728;SDS011;69218;52.132;5.418;2023-08-12T15:07:00;4.13;;;1.15;;
79728;SDS011;69218;52.132;5.418;2023-08-12T15:09:27;3.58;;;1.08;;
79728;SDS011;69218;52.132;5.418;2023-08-12T15:11:54;2.92;;;1.00;;
79728;SDS011;69218;52.132;5.418;2023-08-12T15:14:22;3.75;;;1.20;;
79728;SDS011;69218;52.132;5.418;2023-08-12T15:16:48;4.97;;;0.95;;
79728;SDS011;69218;52.132;5.418;2023-08-12T15:19:15;3.50;;;1.00;;
79728;SDS011;69218;52.132;5.418;2023-08-12T15:21:41;5.57;;;1.35;;
79728;SDS011;69218;52.132;5.418;2023-08-12T15:24:08;4.28;;;1.05;;
79728;SDS011;69218;52.132;5.418;2023-08-12T15:26:34;5.15;;;1.58;;
79728;SDS011;69218;52.132;5.418;2023-08-12T15:29:01;4.07;;;1.30;;
79728;SDS011;69218;52.132;5.418;2023-08-12T15:31:27;5.38;;;1.42;;
79728;SDS011;69218;52.132;5.418;2023-08-12T15:33:54;3.70;;;0.93;;
79728;SDS011;69218;52.132;5.418;2023-08-12T15:36:21;3.65;;;1.20;;
79728;SDS011;69218;52.132;5.418;2023-08-12T15:38:47;5.63;;;1.70;;
79728;SDS011;69218;52.132;5.418;2023-08-12T15:41:14;7.10;;;1.92;;
79728;SDS011;69218;52.132;5.418;2023-08-12T15:43:41;5.22;;;1.10;;
79728;SDS011;69218;52.132;5.418;2023-08-12T15:46:09;4.93;;;1.23;;
79728;SDS011;69218;52.132;5.418;2023-08-12T15:48:35;7.05;;;1.35;;
79728;SDS011;69218;52.132;5.418;2023-08-12T15:51:02;8.38;;;1.45;;
79728;SDS011;69218;52.132;5.418;2023-08-12T15:53:32;7.68;;;1.67;;
79728;SDS011;69218;52.132;5.418;2023-08-12T15:55:59;6.25;;;1.80;;
79728;SDS011;69218;52.132;5.418;2023-08-12T15:58:25;5.03;;;1.45;;
79728;SDS011;69218;52.132;5.418;2023-08-12T16:00:52;6.10;;;1.15;;
79728;SDS011;69218;52.132;5.418;2023-08-12T16:03:18;6.03;;;1.45;;
79728;SDS011;69218;52.132;5.418;2023-08-12T16:05:46;7.40;;;1.23;;
79728;SDS011;69218;52.132;5.418;2023-08-12T16:08:13;4.95;;;1.25;;
79728;SDS011;69218;52.132;5.418;2023-08-12T16:10:39;4.10;;;0.93;;
79728;SDS011;69218;52.132;5.418;2023-08-12T16:13:06;4.10;;;1.02;;
79728;SDS011;69218;52.132;5.418;2023-08-12T16:15:32;6.05;;;1.20;;
79728;SDS011;69218;52.132;5.418;2023-08-12T16:17:59;4.22;;;1.15;;
79728;SDS011;69218;52.132;5.418;2023-08-12T16:20:25;4.45;;;1.30;;
79728;SDS011;69218;52.132;5.418;2023-08-12T16:22:52;4.18;;;1.20;;
79728;SDS011;69218;52.132;5.418;2023-08-12T16:25:18;3.78;;;1.33;;
79728;SDS011;69218;52.132;5.418;2023-08-12T16:27:45;6.75;;;1.52;;
79728;SDS011;69218;52.132;5.418;2023-08-12T16:30:12;5.55;;;1.17;;
79728;SDS011;69218;52.132;5.418;2023-08-12T16:32:38;5.18;;;0.85;;
79728;SDS011;69218;52.132;5.418;2023-08-12T16:35:05;3.53;;;1.05;;
79728;SDS011;69218;52.132;5.418;2023-08-12T16:37:35;4.53;;;0.95;;
79728;SDS011;69218;52.132;5.418;2023-08-12T16:40:02;5.35;;;0.98;;
79728;SDS011;69218;52.132;5.418;2023-08-12T16:42:29;4.40;;;1.00;;
79728;SDS011;69218;52.132;5.418;2023-08-12T16:44:55;6.40;;;1.23;;
79728;SDS011;69218;52.132;5.418;2023-08-12T16:47:22;3.47;;;0.98;;
79728;SDS011;69218;52.132;5.418;2023-08-12T16:49:50;6.60;;;1.08;;
79728;SDS011;69218;52.132;5.418;2023-08-12T16:52:16;4.10;;;1.63;;
79728;SDS011;69218;52.132;5.418;2023-08-12T16:54:45;2.95;;;0.90;;
79728;SDS011;69218;52.132;5.418;2023-08-12T16:57:11;6.10;;;1.38;;
79728;SDS011;69218;52.132;5.418;2023-08-12T16:59:39;5.93;;;1.17;;
79728;SDS011;69218;52.132;5.418;2023-08-12T17:02:05;4.47;;;0.93;;
79728;SDS011;69218;52.132;5.418;2023-08-12T17:04:32;2.90;;;0.80;;
79728;SDS011;69218;52.132;5.418;2023-08-12T17:06:58;3.60;;;0.70;;
79728;SDS011;69218;52.132;5.418;2023-08-12T17:09:25;4.93;;;1.00;;
79728;SDS011;69218;52.132;5.418;2023-08-12T17:11:53;3.65;;;1.15;;
79728;SDS011;69218;52.132;5.418;2023-08-12T17:14:20;5.80;;;1.00;;
79728;SDS011;69218;52.132;5.418;2023-08-12T17:16:47;3.28;;;0.75;;
79728;SDS011;69218;52.132;5.418;2023-08-12T17:19:14;4.97;;;1.00;;
79728;SDS011;69218;52.132;5.418;2023-08-12T17:21:40;4.75;;;0.80;;
79728;SDS011;69218;52.132;5.418;2023-08-12T17:24:07;3.40;;;0.80;;
79728;SDS011;69218;52.132;5.418;2023-08-12T17:26:33;3.72;;;0.70;;
79728;SDS011;69218;52.132;5.418;2023-08-12T17:29:00;4.28;;;0.90;;
79728;SDS011;69218;52.132;5.418;2023-08-12T17:31:26;3.85;;;0.77;;
79728;SDS011;69218;52.132;5.418;2023-08-12T17:33:53;4.53;;;1.08;;
79728;SDS011;69218;52.132;5.418;2023-08-12T17:36:20;3.75;;;0.80;;
79728;SDS011;69218;52.132;5.418;2023-08-12T17:38:46;4.72;;;0.80;;
79728;SDS011;69218;52.132;5.418;2023-08-12T17:41:13;2.58;;;0.65;;
79728;SDS011;69218;52.132;5.418;2023-08-12T17:43:41;3.58;;;0.85;;
79728;SDS011;69218;52.132;5.418;2023-08-12T17:46:09;3.08;;;0.80;;
79728;SDS011;69218;52.132;5.418;2023-08-12T17:48:39;2.65;;;0.70;;
79728;SDS011;69218;52.132;5.418;2023-08-12T17:51:05;4.10;;;0.80;;
79728;SDS011;69218;52.132;5.418;2023-08-12T17:53:43;4.95;;;0.82;;
79728;SDS011;69218;52.132;5.418;2023-08-12T17:56:11;4.32;;;0.82;;
79728;SDS011;69218;52.132;5.418;2023-08-12T17:58:37;3.75;;;1.15;;
79728;SDS011;69218;52.132;5.418;2023-08-12T18:01:04;4.38;;;0.80;;
79728;SDS011;69218;52.132;5.418;2023-08-12T18:03:31;4.05;;;0.90;;
79728;SDS011;69218;52.132;5.418;2023-08-12T18:05:58;3.35;;;0.90;;
79728;SDS011;69218;52.132;5.418;2023-08-12T18:08:24;3.42;;;0.88;;
79728;SDS011;69218;52.132;5.418;2023-08-12T18:10:51;3.92;;;1.00;;
79728;SDS011;69218;52.132;5.418;2023-08-12T18:13:18;3.83;;;1.15;;
79728;SDS011;69218;52.132;5.418;2023-08-12T18:15:45;4.18;;;0.88;;
79728;SDS011;69218;52.132;5.418;2023-08-12T18:18:11;5.05;;;1.02;;
79728;SDS011;69218;52.132;5.418;2023-08-12T18:20:38;5.32;;;0.93;;
79728;SDS011;69218;52.132;5.418;2023-08-12T18:23:04;5.70;;;0.77;;
79728;SDS011;69218;52.132;5.418;2023-08-12T18:25:31;5.38;;;0.95;;
79728;SDS011;69218;52.132;5.418;2023-08-12T18:27:58;2.90;;;0.80;;
79728;SDS011;69218;52.132;5.418;2023-08-12T18:30:24;6.18;;;0.85;;
79728;SDS011;69218;52.132;5.418;2023-08-12T18:32:51;2.22;;;0.82;;
79728;SDS011;69218;52.132;5.418;2023-08-12T18:35:18;6.78;;;1.20;;
79728;SDS011;69218;52.132;5.418;2023-08-12T18:37:44;5.78;;;1.00;;
79728;SDS011;69218;52.132;5.418;2023-08-12T18:40:14;5.88;;;0.95;;
79728;SDS011;69218;52.132;5.418;2023-08-12T18:42:41;6.43;;;1.10;;
79728;SDS011;69218;52.132;5.418;2023-08-12T18:45:07;5.75;;;1.02;;
79728;SDS011;69218;52.132;5.418;2023-08-12T18:47:34;6.78;;;0.90;;
79728;SDS011;69218;52.132;5.418;2023-08-12T18:50:01;6.10;;;1.38;;
79728;SDS011;69218;52.132;5.418;2023-08-12T18:52:29;5.05;;;1.52;;
79728;SDS011;69218;52.132;5.418;2023-08-12T18:54:55;4.10;;;1.13;;
79728;SDS011;69218;52.132;5.418;2023-08-12T18:57:22;3.60;;;1.10;;
79728;SDS011;69218;52.132;5.418;2023-08-12T18:59:48;4.63;;;0.80;;
79728;SDS011;69218;52.132;5.418;2023-08-12T19:02:15;5.20;;;1.10;;
79728;SDS011;69218;52.132;5.418;2023-08-12T19:04:42;6.50;;;1.17;;
79728;SDS011;69218;52.132;5.418;2023-08-12T19:07:08;5.07;;;0.93;;
79728;SDS011;69218;52.132;5.418;2023-08-12T19:09:35;5.50;;;1.00;;
79728;SDS011;69218;52.132;5.418;2023-08-12T19:12:02;5.60;;;1.00;;
79728;SDS011;69218;52.132;5.418;2023-08-12T19:14:28;5.05;;;1.20;;
79728;SDS011;69218;52.132;5.418;2023-08-12T19:16:55;5.95;;;1.10;;
79728;SDS011;69218;52.132;5.418;2023-08-12T19:19:21;5.32;;;1.10;;
79728;SDS011;69218;52.132;5.418;2023-08-12T19:21:48;7.28;;;1.17;;
79728;SDS011;69218;52.132;5.418;2023-08-12T19:24:14;5.28;;;1.13;;
79728;SDS011;69218;52.132;5.418;2023-08-12T19:26:41;6.70;;;1.65;;
79728;SDS011;69218;52.132;5.418;2023-08-12T19:29:07;6.28;;;0.98;;
79728;SDS011;69218;52.132;5.418;2023-08-12T19:31:34;5.53;;;1.15;;
79728;SDS011;69218;52.132;5.418;2023-08-12T19:34:00;6.25;;;1.33;;
79728;SDS011;69218;52.132;5.418;2023-08-12T19:36:27;4.50;;;1.00;;
79728;SDS011;69218;52.132;5.418;2023-08-12T19:38:53;7.82;;;1.13;;
79728;SDS011;69218;52.132;5.418;2023-08-12T19:41:20;6.45;;;1.25;;
79728;SDS011;69218;52.132;5.418;2023-08-12T19:43:46;6.72;;;1.27;;
79728;SDS011;69218;52.132;5.418;2023-08-12T19:46:13;6.07;;;1.20;;
79728;SDS011;69218;52.132;5.418;2023-08-12T19:48:40;7.55;;;1.30;;
79728;SDS011;69218;52.132;5.418;2023-08-12T19:51:06;5.82;;;1.40;;